sensor_id;sensor_type;location;lat;lon;timestamp;temperature;humidity
38973;DHT22;25333;50.762;4.470;2022-11-12T00:02:16;7.50;99.90
38973;DHT22;25333;50.762;4.470;2022-11-12T00:05:05;7.50;99.90
38973;DHT22;25333;50.762;4.470;2022-11-12T00:07:33;7.50;99.90
38973;DHT22;25333;50.762;4.470;2022-11-12T00:09:59;7.50;99.90
38973;DHT22;25333;50.762;4.470;2022-11-12T00:12:30;7.50;99.90
38973;DHT22;25333;50.762;4.470;2022-11-12T00:15:03;7.40;99.90
38973;DHT22;25333;50.762;4.470;2022-11-12T00:17:45;7.30;99.90
38973;DHT22;25333;50.762;4.470;2022-11-12T00:20:20;7.30;99.90
38973;DHT22;25333;50.762;4.470;2022-11-12T00:22:45;7.30;99.90
38973;DHT22;25333;50.762;4.470;2022-11-12T00:25:16;7.30;99.90
38973;DHT22;25333;50.762;4.470;2022-11-12T00:28:08;7.20;99.90
38973;DHT22;25333;50.762;4.470;2022-11-12T00:30:55;7.10;99.90
38973;DHT22;25333;50.762;4.470;2022-11-12T00:33:40;7.20;99.90
38973;DHT22;25333;50.762;4.470;2022-11-12T00:36:19;7.20;99.90
38973;DHT22;25333;50.762;4.470;2022-11-12T00:39:13;7.20;99.90
38973;DHT22;25333;50.762;4.470;2022-11-12T00:41:51;7.20;99.90
38973;DHT22;25333;50.762;4.470;2022-11-12T00:44:23;7.30;99.90
38973;DHT22;25333;50.762;4.470;2022-11-12T00:47:18;7.40;99.90
38973;DHT22;25333;50.762;4.470;2022-11-12T00:49:46;7.40;99.90
38973;DHT22;25333;50.762;4.470;2022-11-12T00:52:11;7.50;99.90
38973;DHT22;25333;50.762;4.470;2022-11-12T00:54:37;7.30;99.90
38973;DHT22;25333;50.762;4.470;2022-11-12T00:57:03;7.20;99.90
38973;DHT22;25333;50.762;4.470;2022-11-12T00:59:28;7.30;99.90
38973;DHT22;25333;50.762;4.470;2022-11-12T01:01:56;7.30;99.90
38973;DHT22;25333;50.762;4.470;2022-11-12T01:04:27;7.20;99.90
38973;DHT22;25333;50.762;4.470;2022-11-12T01:06:52;7.20;99.90
38973;DHT22;25333;50.762;4.470;2022-11-12T01:09:20;7.00;99.90
38973;DHT22;25333;50.762;4.470;2022-11-12T01:11:46;6.90;99.90
38973;DHT22;25333;50.762;4.470;2022-11-12T01:14:12;7.00;99.90
38973;DHT22;25333;50.762;4.470;2022-11-12T01:17:01;7.10;99.90
38973;DHT22;25333;50.762;4.470;2022-11-12T01:19:37;7.00;99.90
38973;DHT22;25333;50.762;4.470;2022-11-12T01:22:05;7.00;99.90
38973;DHT22;25333;50.762;4.470;2022-11-12T01:24:31;7.10;99.90
38973;DHT22;25333;50.762;4.470;2022-11-12T01:27:02;7.00;99.90
38973;DHT22;25333;50.762;4.470;2022-11-12T01:29:30;7.00;99.90
38973;DHT22;25333;50.762;4.470;2022-11-12T01:31:56;6.90;99.90
38973;DHT22;25333;50.762;4.470;2022-11-12T01:34:33;6.80;99.90
38973;DHT22;25333;50.762;4.470;2022-11-12T01:37:01;6.90;99.90
38973;DHT22;25333;50.762;4.470;2022-11-12T01:39:27;6.90;99.90
38973;DHT22;25333;50.762;4.470;2022-11-12T01:41:53;6.80;99.90
38973;DHT22;25333;50.762;4.470;2022-11-12T01:44:23;6.70;99.90
38973;DHT22;25333;50.762;4.470;2022-11-12T01:52:40;6.70;99.90
38973;DHT22;25333;50.762;4.470;2022-11-12T01:55:10;6.80;99.90
38973;DHT22;25333;50.762;4.470;2022-11-12T01:57:46;6.80;99.90
38973;DHT22;25333;50.762;4.470;2022-11-12T02:00:15;6.80;99.90
38973;DHT22;25333;50.762;4.470;2022-11-12T02:02:42;6.80;99.90
38973;DHT22;25333;50.762;4.470;2022-11-12T02:05:16;6.70;99.90
38973;DHT22;25333;50.762;4.470;2022-11-12T02:07:49;6.60;99.90
38973;DHT22;25333;50.762;4.470;2022-11-12T02:10:23;6.60;99.90
38973;DHT22;25333;50.762;4.470;2022-11-12T02:12:53;6.60;99.90
38973;DHT22;25333;50.762;4.470;2022-11-12T02:15:42;6.60;99.90
38973;DHT22;25333;50.762;4.470;2022-11-12T02:18:08;6.60;99.90
38973;DHT22;25333;50.762;4.470;2022-11-12T02:20:36;6.50;99.90
38973;DHT22;25333;50.762;4.470;2022-11-12T02:23:02;6.30;99.90
38973;DHT22;25333;50.762;4.470;2022-11-12T02:25:32;6.20;99.90
38973;DHT22;25333;50.762;4.470;2022-11-12T02:27:59;6.20;99.90
38973;DHT22;25333;50.762;4.470;2022-11-12T02:30:41;6.30;99.90
38973;DHT22;25333;50.762;4.470;2022-11-12T02:33:07;6.40;99.90
38973;DHT22;25333;50.762;4.470;2022-11-12T02:35:33;6.30;99.90
38973;DHT22;25333;50.762;4.470;2022-11-12T02:38:05;6.20;99.90
38973;DHT22;25333;50.762;4.470;2022-11-12T02:40:31;6.20;99.90
38973;DHT22;25333;50.762;4.470;2022-11-12T02:42:56;6.20;99.90
38973;DHT22;25333;50.762;4.470;2022-11-12T02:45:22;6.20;99.90
38973;DHT22;25333;50.762;4.470;2022-11-12T02:47:50;6.10;99.90
38973;DHT22;25333;50.762;4.470;2022-11-12T02:50:16;6.00;99.90
38973;DHT22;25333;50.762;4.470;2022-11-12T02:52:50;6.00;99.90
38973;DHT22;25333;50.762;4.470;2022-11-12T02:55:15;6.10;99.90
38973;DHT22;25333;50.762;4.470;2022-11-12T02:57:46;6.10;99.90
38973;DHT22;25333;50.762;4.470;2022-11-12T03:00:22;6.10;99.90
38973;DHT22;25333;50.762;4.470;2022-11-12T03:02:57;6.10;99.90
38973;DHT22;25333;50.762;4.470;2022-11-12T03:05:29;6.20;99.90
38973;DHT22;25333;50.762;4.470;2022-11-12T03:08:05;6.20;99.90
38973;DHT22;25333;50.762;4.470;2022-11-12T03:10:39;6.00;99.90
38973;DHT22;25333;50.762;4.470;2022-11-12T03:13:07;6.00;99.90
38973;DHT22;25333;50.762;4.470;2022-11-12T03:15:36;6.00;99.90
38973;DHT22;25333;50.762;4.470;2022-11-12T03:18:09;5.90;99.90
38973;DHT22;25333;50.762;4.470;2022-11-12T03:20:34;5.80;99.90
38973;DHT22;25333;50.762;4.470;2022-11-12T03:23:02;5.90;99.90
38973;DHT22;25333;50.762;4.470;2022-11-12T03:25:29;5.90;99.90
38973;DHT22;25333;50.762;4.470;2022-11-12T03:28:03;5.70;99.90
38973;DHT22;25333;50.762;4.470;2022-11-12T03:30:32;5.80;99.90
38973;DHT22;25333;50.762;4.470;2022-11-12T03:32:58;5.90;99.90
38973;DHT22;25333;50.762;4.470;2022-11-12T03:35:29;5.90;99.90
38973;DHT22;25333;50.762;4.470;2022-11-12T03:37:57;5.80;99.90
38973;DHT22;25333;50.762;4.470;2022-11-12T03:40:26;5.90;99.90
38973;DHT22;25333;50.762;4.470;2022-11-12T03:42:55;5.90;99.90
38973;DHT22;25333;50.762;4.470;2022-11-12T03:45:22;5.80;99.90
38973;DHT22;25333;50.762;4.470;2022-11-12T03:47:51;5.60;99.90
38973;DHT22;25333;50.762;4.470;2022-11-12T03:50:18;5.70;99.90
38973;DHT22;25333;50.762;4.470;2022-11-12T03:52:54;5.80;99.90
38973;DHT22;25333;50.762;4.470;2022-11-12T03:55:22;5.80;99.90
38973;DHT22;25333;50.762;4.470;2022-11-12T03:57:49;5.70;99.90
38973;DHT22;25333;50.762;4.470;2022-11-12T04:00:24;5.70;99.90
38973;DHT22;25333;50.762;4.470;2022-11-12T04:02:50;5.80;99.90
38973;DHT22;25333;50.762;4.470;2022-11-12T04:05:18;5.80;99.90
38973;DHT22;25333;50.762;4.470;2022-11-12T04:08:15;5.80;99.90
38973;DHT22;25333;50.762;4.470;2022-11-12T04:13:49;5.70;99.90
38973;DHT22;25333;50.762;4.470;2022-11-12T04:16:44;5.80;99.90
38973;DHT22;25333;50.762;4.470;2022-11-12T04:19:28;5.80;99.90
38973;DHT22;25333;50.762;4.470;2022-11-12T04:22:12;5.70;99.90
38973;DHT22;25333;50.762;4.470;2022-11-12T04:24:40;5.60;99.90
38973;DHT22;25333;50.762;4.470;2022-11-12T04:27:33;5.60;99.90
38973;DHT22;25333;50.762;4.470;2022-11-12T04:29:59;5.70;99.90
38973;DHT22;25333;50.762;4.470;2022-11-12T04:32:55;5.70;99.90
38973;DHT22;25333;50.762;4.470;2022-11-12T04:35:29;5.70;99.90
38973;DHT22;25333;50.762;4.470;2022-11-12T04:37:55;5.70;99.90
38973;DHT22;25333;50.762;4.470;2022-11-12T04:40:24;5.60;99.90
38973;DHT22;25333;50.762;4.470;2022-11-12T04:43:16;5.70;99.90
38973;DHT22;25333;50.762;4.470;2022-11-12T04:46:03;5.60;99.90
38973;DHT22;25333;50.762;4.470;2022-11-12T04:48:38;5.70;99.90
38973;DHT22;25333;50.762;4.470;2022-11-12T04:51:06;5.70;99.90
38973;DHT22;25333;50.762;4.470;2022-11-12T04:53:52;5.70;99.90
38973;DHT22;25333;50.762;4.470;2022-11-12T04:56:28;5.60;99.90
38973;DHT22;25333;50.762;4.470;2022-11-12T04:58:56;5.60;99.90
38973;DHT22;25333;50.762;4.470;2022-11-12T05:01:31;5.50;99.90
38973;DHT22;25333;50.762;4.470;2022-11-12T05:03:57;5.40;99.90
38973;DHT22;25333;50.762;4.470;2022-11-12T05:06:26;5.40;99.90
38973;DHT22;25333;50.762;4.470;2022-11-12T05:09:10;5.40;99.90
38973;DHT22;25333;50.762;4.470;2022-11-12T05:11:38;5.50;99.90
38973;DHT22;25333;50.762;4.470;2022-11-12T05:14:06;5.50;99.90
38973;DHT22;25333;50.762;4.470;2022-11-12T05:16:32;5.50;99.90
38973;DHT22;25333;50.762;4.470;2022-11-12T05:18:58;5.40;99.90
38973;DHT22;25333;50.762;4.470;2022-11-12T05:21:23;5.40;99.90
38973;DHT22;25333;50.762;4.470;2022-11-12T05:24:18;5.30;99.90
38973;DHT22;25333;50.762;4.470;2022-11-12T05:26:46;5.30;99.90
38973;DHT22;25333;50.762;4.470;2022-11-12T05:29:14;5.30;99.90
38973;DHT22;25333;50.762;4.470;2022-11-12T05:31:39;5.40;99.90
38973;DHT22;25333;50.762;4.470;2022-11-12T05:34:05;5.40;99.90
38973;DHT22;25333;50.762;4.470;2022-11-12T05:36:31;5.40;99.90
38973;DHT22;25333;50.762;4.470;2022-11-12T05:38:59;5.30;99.90
38973;DHT22;25333;50.762;4.470;2022-11-12T05:41:27;5.30;99.90
38973;DHT22;25333;50.762;4.470;2022-11-12T05:43:55;5.30;99.90
38973;DHT22;25333;50.762;4.470;2022-11-12T05:46:23;5.30;99.90
38973;DHT22;25333;50.762;4.470;2022-11-12T05:48:49;5.40;99.90
38973;DHT22;25333;50.762;4.470;2022-11-12T05:51:14;5.40;99.90
38973;DHT22;25333;50.762;4.470;2022-11-12T05:53:41;5.30;99.90
38973;DHT22;25333;50.762;4.470;2022-11-12T05:56:15;5.10;99.90
38973;DHT22;25333;50.762;4.470;2022-11-12T05:58:54;5.00;99.90
38973;DHT22;25333;50.762;4.470;2022-11-12T06:01:27;5.10;99.90
38973;DHT22;25333;50.762;4.470;2022-11-12T06:04:24;5.10;99.90
38973;DHT22;25333;50.762;4.470;2022-11-12T06:06:53;5.10;99.90
38973;DHT22;25333;50.762;4.470;2022-11-12T06:09:18;5.00;99.90
38973;DHT22;25333;50.762;4.470;2022-11-12T06:12:02;5.00;99.90
38973;DHT22;25333;50.762;4.470;2022-11-12T06:15:01;5.00;99.90
38973;DHT22;25333;50.762;4.470;2022-11-12T06:17:32;5.10;99.90
38973;DHT22;25333;50.762;4.470;2022-11-12T06:20:00;5.20;99.90
38973;DHT22;25333;50.762;4.470;2022-11-12T06:22:46;5.20;99.90
38973;DHT22;25333;50.762;4.470;2022-11-12T07:03:37;4.90;99.90
38973;DHT22;25333;50.762;4.470;2022-11-12T07:06:12;4.90;99.90
38973;DHT22;25333;50.762;4.470;2022-11-12T07:16:35;4.90;99.90
38973;DHT22;25333;50.762;4.470;2022-11-12T07:19:06;5.00;99.90
38973;DHT22;25333;50.762;4.470;2022-11-12T07:22:10;4.90;99.90
38973;DHT22;25333;50.762;4.470;2022-11-12T07:24:36;5.00;99.90
38973;DHT22;25333;50.762;4.470;2022-11-12T07:27:02;5.00;99.90
38973;DHT22;25333;50.762;4.470;2022-11-12T07:29:29;5.00;99.90
38973;DHT22;25333;50.762;4.470;2022-11-12T07:31:56;5.00;99.90
38973;DHT22;25333;50.762;4.470;2022-11-12T07:34:32;5.00;99.90
38973;DHT22;25333;50.762;4.470;2022-11-12T07:36:58;5.00;99.90
38973;DHT22;25333;50.762;4.470;2022-11-12T07:39:23;5.00;99.90
38973;DHT22;25333;50.762;4.470;2022-11-12T07:41:49;5.00;99.90
38973;DHT22;25333;50.762;4.470;2022-11-12T07:44:15;5.10;99.90
38973;DHT22;25333;50.762;4.470;2022-11-12T07:46:41;5.20;99.90
38973;DHT22;25333;50.762;4.470;2022-11-12T07:49:07;5.20;99.90
38973;DHT22;25333;50.762;4.470;2022-11-12T07:51:33;5.30;99.90
38973;DHT22;25333;50.762;4.470;2022-11-12T07:54:03;5.30;99.90
38973;DHT22;25333;50.762;4.470;2022-11-12T07:56:29;5.30;99.90
38973;DHT22;25333;50.762;4.470;2022-11-12T07:58:58;5.40;99.90
38973;DHT22;25333;50.762;4.470;2022-11-12T08:01:32;5.60;99.90
38973;DHT22;25333;50.762;4.470;2022-11-12T08:03:59;5.70;99.90
38973;DHT22;25333;50.762;4.470;2022-11-12T08:06:28;5.90;99.90
38973;DHT22;25333;50.762;4.470;2022-11-12T08:08:56;6.00;99.90
38973;DHT22;25333;50.762;4.470;2022-11-12T08:11:36;6.10;99.90
38973;DHT22;25333;50.762;4.470;2022-11-12T08:14:09;6.30;99.90
38973;DHT22;25333;50.762;4.470;2022-11-12T08:16:35;6.50;99.90
38973;DHT22;25333;50.762;4.470;2022-11-12T08:19:00;6.70;99.90
38973;DHT22;25333;50.762;4.470;2022-11-12T08:21:26;6.90;99.90
38973;DHT22;25333;50.762;4.470;2022-11-12T08:23:52;7.10;99.90
38973;DHT22;25333;50.762;4.470;2022-11-12T08:26:18;7.20;99.90
38973;DHT22;25333;50.762;4.470;2022-11-12T08:28:45;7.20;99.90
38973;DHT22;25333;50.762;4.470;2022-11-12T08:31:21;7.30;99.90
38973;DHT22;25333;50.762;4.470;2022-11-12T08:33:48;7.40;99.90
38973;DHT22;25333;50.762;4.470;2022-11-12T08:36:15;7.50;99.90
38973;DHT22;25333;50.762;4.470;2022-11-12T08:38:42;7.70;99.90
38973;DHT22;25333;50.762;4.470;2022-11-12T08:41:12;7.80;99.90
38973;DHT22;25333;50.762;4.470;2022-11-12T08:43:41;8.00;99.90
38973;DHT22;25333;50.762;4.470;2022-11-12T08:46:07;8.10;99.90
38973;DHT22;25333;50.762;4.470;2022-11-12T08:48:34;8.30;99.90
38973;DHT22;25333;50.762;4.470;2022-11-12T08:51:04;8.60;99.90
38973;DHT22;25333;50.762;4.470;2022-11-12T08:53:32;8.80;99.90
38973;DHT22;25333;50.762;4.470;2022-11-12T08:56:26;9.00;99.90
38973;DHT22;25333;50.762;4.470;2022-11-12T08:58:54;9.20;99.90
38973;DHT22;25333;50.762;4.470;2022-11-12T09:01:23;9.40;99.90
38973;DHT22;25333;50.762;4.470;2022-11-12T09:03:49;9.50;99.90
38973;DHT22;25333;50.762;4.470;2022-11-12T09:06:18;9.60;99.90
38973;DHT22;25333;50.762;4.470;2022-11-12T09:08:44;9.60;99.90
38973;DHT22;25333;50.762;4.470;2022-11-12T09:11:10;9.80;99.90
38973;DHT22;25333;50.762;4.470;2022-11-12T09:13:46;10.10;99.90
38973;DHT22;25333;50.762;4.470;2022-11-12T09:19:27;10.60;99.90
38973;DHT22;25333;50.762;4.470;2022-11-12T09:22:00;10.80;99.90
38973;DHT22;25333;50.762;4.470;2022-11-12T09:24:34;10.80;99.90
38973;DHT22;25333;50.762;4.470;2022-11-12T09:27:00;10.90;99.90
38973;DHT22;25333;50.762;4.470;2022-11-12T09:29:26;11.20;99.90
38973;DHT22;25333;50.762;4.470;2022-11-12T09:31:51;11.40;99.90
38973;DHT22;25333;50.762;4.470;2022-11-12T09:34:17;11.60;99.90
38973;DHT22;25333;50.762;4.470;2022-11-12T09:36:43;11.70;99.90
38973;DHT22;25333;50.762;4.470;2022-11-12T09:39:12;11.90;99.90
38973;DHT22;25333;50.762;4.470;2022-11-12T09:41:40;12.10;99.90
38973;DHT22;25333;50.762;4.470;2022-11-12T09:44:14;12.10;99.90
38973;DHT22;25333;50.762;4.470;2022-11-12T09:47:04;12.40;99.90
38973;DHT22;25333;50.762;4.470;2022-11-12T09:52:38;13.00;99.90
38973;DHT22;25333;50.762;4.470;2022-11-12T09:55:33;13.20;99.90
38973;DHT22;25333;50.762;4.470;2022-11-12T09:58:04;13.30;99.90
38973;DHT22;25333;50.762;4.470;2022-11-12T10:00:30;13.40;99.90
38973;DHT22;25333;50.762;4.470;2022-11-12T10:03:03;13.60;99.90
38973;DHT22;25333;50.762;4.470;2022-11-12T10:05:46;13.70;99.90
38973;DHT22;25333;50.762;4.470;2022-11-12T10:17:01;14.00;99.90
38973;DHT22;25333;50.762;4.470;2022-11-12T10:20:46;14.10;99.90
38973;DHT22;25333;50.762;4.470;2022-11-12T10:23:04;14.20;99.90
38973;DHT22;25333;50.762;4.470;2022-11-12T10:25:34;14.40;99.90
38973;DHT22;25333;50.762;4.470;2022-11-12T10:28:01;14.40;99.90
38973;DHT22;25333;50.762;4.470;2022-11-12T10:30:34;14.40;99.90
38973;DHT22;25333;50.762;4.470;2022-11-12T10:32:59;14.50;99.90
38973;DHT22;25333;50.762;4.470;2022-11-12T10:35:25;14.60;99.90
38973;DHT22;25333;50.762;4.470;2022-11-12T10:37:56;14.80;99.90
38973;DHT22;25333;50.762;4.470;2022-11-12T10:45:27;15.30;99.90
38973;DHT22;25333;50.762;4.470;2022-11-12T10:47:53;15.40;99.90
38973;DHT22;25333;50.762;4.470;2022-11-12T10:50:35;15.30;99.90
38973;DHT22;25333;50.762;4.470;2022-11-12T10:53:07;15.40;99.90
38973;DHT22;25333;50.762;4.470;2022-11-12T10:55:57;15.60;99.80
38973;DHT22;25333;50.762;4.470;2022-11-12T10:58:21;15.60;99.70
38973;DHT22;25333;50.762;4.470;2022-11-12T11:03:30;15.50;99.90
38973;DHT22;25333;50.762;4.470;2022-11-12T11:08:47;15.50;99.70
38973;DHT22;25333;50.762;4.470;2022-11-12T11:11:24;15.60;99.90
38973;DHT22;25333;50.762;4.470;2022-11-12T11:13:53;15.60;99.90
38973;DHT22;25333;50.762;4.470;2022-11-12T11:16:20;15.70;99.70
38973;DHT22;25333;50.762;4.470;2022-11-12T11:18:58;15.60;99.70
38973;DHT22;25333;50.762;4.470;2022-11-12T11:27:31;15.60;99.90
38973;DHT22;25333;50.762;4.470;2022-11-12T11:38:53;15.50;99.90
38973;DHT22;25333;50.762;4.470;2022-11-12T11:49:55;15.80;99.90
38973;DHT22;25333;50.762;4.470;2022-11-12T11:56:01;15.80;99.90
38973;DHT22;25333;50.762;4.470;2022-11-12T11:58:46;15.90;99.90
38973;DHT22;25333;50.762;4.470;2022-11-12T12:01:41;15.90;99.90
38973;DHT22;25333;50.762;4.470;2022-11-12T12:12:41;16.10;99.90
38973;DHT22;25333;50.762;4.470;2022-11-12T12:15:31;16.20;99.90
38973;DHT22;25333;50.762;4.470;2022-11-12T12:21:01;16.20;99.90
38973;DHT22;25333;50.762;4.470;2022-11-12T12:23:40;16.20;99.90
38973;DHT22;25333;50.762;4.470;2022-11-12T12:26:30;16.20;99.90
38973;DHT22;25333;50.762;4.470;2022-11-12T12:29:32;16.10;99.90
38973;DHT22;25333;50.762;4.470;2022-11-12T12:32:45;16.20;99.90
38973;DHT22;25333;50.762;4.470;2022-11-12T12:35:29;16.30;99.90
38973;DHT22;25333;50.762;4.470;2022-11-12T12:38:09;16.20;99.90
38973;DHT22;25333;50.762;4.470;2022-11-12T12:43:36;16.30;99.90
38973;DHT22;25333;50.762;4.470;2022-11-12T12:46:36;16.40;99.90
38973;DHT22;25333;50.762;4.470;2022-11-12T12:49:18;16.40;99.90
38973;DHT22;25333;50.762;4.470;2022-11-12T12:51:59;16.50;99.90
38973;DHT22;25333;50.762;4.470;2022-11-12T12:57:02;16.50;99.90
38973;DHT22;25333;50.762;4.470;2022-11-12T12:59:28;16.40;99.90
38973;DHT22;25333;50.762;4.470;2022-11-12T13:01:59;16.40;99.90
38973;DHT22;25333;50.762;4.470;2022-11-12T13:04:48;16.40;99.90
38973;DHT22;25333;50.762;4.470;2022-11-12T13:07:14;16.40;99.90
38973;DHT22;25333;50.762;4.470;2022-11-12T13:09:40;16.30;99.90
38973;DHT22;25333;50.762;4.470;2022-11-12T13:12:16;16.30;99.90
38973;DHT22;25333;50.762;4.470;2022-11-12T13:15:10;16.30;99.90
38973;DHT22;25333;50.762;4.470;2022-11-12T13:17:47;16.30;99.90
38973;DHT22;25333;50.762;4.470;2022-11-12T13:20:32;16.40;99.90
38973;DHT22;25333;50.762;4.470;2022-11-12T13:22:58;16.40;99.90
38973;DHT22;25333;50.762;4.470;2022-11-12T13:25:27;16.40;99.90
38973;DHT22;25333;50.762;4.470;2022-11-12T13:35:19;16.70;99.90
38973;DHT22;25333;50.762;4.470;2022-11-12T13:37:55;16.80;99.90
38973;DHT22;25333;50.762;4.470;2022-11-12T13:43:11;16.80;99.90
38973;DHT22;25333;50.762;4.470;2022-11-12T13:45:54;16.80;99.90
38973;DHT22;25333;50.762;4.470;2022-11-12T13:48:30;16.80;99.90
38973;DHT22;25333;50.762;4.470;2022-11-12T13:51:04;16.80;99.90
38973;DHT22;25333;50.762;4.470;2022-11-12T13:53:32;16.80;99.90
38973;DHT22;25333;50.762;4.470;2022-11-12T13:55:58;17.00;99.90
38973;DHT22;25333;50.762;4.470;2022-11-12T13:58:31;16.90;99.80
38973;DHT22;25333;50.762;4.470;2022-11-12T14:01:04;16.90;99.60
38973;DHT22;25333;50.762;4.470;2022-11-12T14:03:49;16.80;99.70
38973;DHT22;25333;50.762;4.470;2022-11-12T14:08:54;16.90;99.90
38973;DHT22;25333;50.762;4.470;2022-11-12T14:17:32;16.80;99.80
38973;DHT22;25333;50.762;4.470;2022-11-12T14:22:45;16.80;99.70
38973;DHT22;25333;50.762;4.470;2022-11-12T14:25:26;16.90;99.90
38973;DHT22;25333;50.762;4.470;2022-11-12T14:27:55;16.90;99.90
38973;DHT22;25333;50.762;4.470;2022-11-12T14:30:41;16.90;99.90
38973;DHT22;25333;50.762;4.470;2022-11-12T14:33:09;16.90;99.70
38973;DHT22;25333;50.762;4.470;2022-11-12T14:35:39;16.70;99.90
38973;DHT22;25333;50.762;4.470;2022-11-12T14:40:42;16.60;99.90
38973;DHT22;25333;50.762;4.470;2022-11-12T14:43:30;16.60;99.90
38973;DHT22;25333;50.762;4.470;2022-11-12T14:46:03;16.50;99.90
38973;DHT22;25333;50.762;4.470;2022-11-12T14:48:43;16.50;99.90
38973;DHT22;25333;50.762;4.470;2022-11-12T14:51:11;16.40;99.90
38973;DHT22;25333;50.762;4.470;2022-11-12T14:53:40;16.30;99.90
38973;DHT22;25333;50.762;4.470;2022-11-12T14:56:10;16.30;99.90
38973;DHT22;25333;50.762;4.470;2022-11-12T14:58:41;16.20;99.90
38973;DHT22;25333;50.762;4.470;2022-11-12T15:01:22;16.00;99.90
38973;DHT22;25333;50.762;4.470;2022-11-12T15:03:48;15.90;99.90
38973;DHT22;25333;50.762;4.470;2022-11-12T15:06:18;15.60;99.90
38973;DHT22;25333;50.762;4.470;2022-11-12T15:08:55;15.30;99.90
38973;DHT22;25333;50.762;4.470;2022-11-12T15:11:44;15.20;99.90
38973;DHT22;25333;50.762;4.470;2022-11-12T15:14:20;15.20;99.90
38973;DHT22;25333;50.762;4.470;2022-11-12T15:16:46;15.10;99.90
38973;DHT22;25333;50.762;4.470;2022-11-12T15:21:48;15.00;99.90
38973;DHT22;25333;50.762;4.470;2022-11-12T15:24:28;14.90;99.90
38973;DHT22;25333;50.762;4.470;2022-11-12T15:26:56;14.80;99.90
38973;DHT22;25333;50.762;4.470;2022-11-12T15:29:31;14.80;99.90
38973;DHT22;25333;50.762;4.470;2022-11-12T15:37:18;14.50;99.90
38973;DHT22;25333;50.762;4.470;2022-11-12T15:39:49;14.50;99.90
38973;DHT22;25333;50.762;4.470;2022-11-12T15:42:52;14.40;99.90
38973;DHT22;25333;50.762;4.470;2022-11-12T15:45:15;14.40;99.90
38973;DHT22;25333;50.762;4.470;2022-11-12T15:47:41;14.20;99.90
38973;DHT22;25333;50.762;4.470;2022-11-12T15:52:41;14.00;99.90
38973;DHT22;25333;50.762;4.470;2022-11-12T15:55:08;13.90;99.90
38973;DHT22;25333;50.762;4.470;2022-11-12T15:57:39;13.80;99.90
38973;DHT22;25333;50.762;4.470;2022-11-12T16:02:41;13.60;99.90
38973;DHT22;25333;50.762;4.470;2022-11-12T16:05:12;13.40;99.90
38973;DHT22;25333;50.762;4.470;2022-11-12T16:07:38;13.50;99.90
38973;DHT22;25333;50.762;4.470;2022-11-12T16:10:04;13.40;99.90
38973;DHT22;25333;50.762;4.470;2022-11-12T16:12:32;13.40;99.90
38973;DHT22;25333;50.762;4.470;2022-11-12T16:14:59;13.20;99.90
38973;DHT22;25333;50.762;4.470;2022-11-12T16:17:25;13.20;99.90
38973;DHT22;25333;50.762;4.470;2022-11-12T16:19:51;13.10;99.90
38973;DHT22;25333;50.762;4.470;2022-11-12T16:22:17;13.10;99.90
38973;DHT22;25333;50.762;4.470;2022-11-12T16:24:43;13.00;99.90
38973;DHT22;25333;50.762;4.470;2022-11-12T16:27:13;13.00;99.90
38973;DHT22;25333;50.762;4.470;2022-11-12T16:29:39;12.80;99.90
38973;DHT22;25333;50.762;4.470;2022-11-12T16:32:05;12.60;99.90
38973;DHT22;25333;50.762;4.470;2022-11-12T16:34:31;12.50;99.90
38973;DHT22;25333;50.762;4.470;2022-11-12T16:36:57;12.50;99.90
38973;DHT22;25333;50.762;4.470;2022-11-12T16:39:23;12.50;99.90
38973;DHT22;25333;50.762;4.470;2022-11-12T16:41:49;12.50;99.90
38973;DHT22;25333;50.762;4.470;2022-11-12T16:44:15;12.30;99.90
38973;DHT22;25333;50.762;4.470;2022-11-12T16:47:01;12.20;99.90
38973;DHT22;25333;50.762;4.470;2022-11-12T16:49:27;12.00;99.90
38973;DHT22;25333;50.762;4.470;2022-11-12T16:51:53;12.00;99.90
38973;DHT22;25333;50.762;4.470;2022-11-12T16:54:18;12.00;99.90
38973;DHT22;25333;50.762;4.470;2022-11-12T16:56:44;12.10;99.90
38973;DHT22;25333;50.762;4.470;2022-11-12T16:59:12;12.00;99.90
38973;DHT22;25333;50.762;4.470;2022-11-12T17:01:39;11.90;99.90
38973;DHT22;25333;50.762;4.470;2022-11-12T17:04:04;11.70;99.90
38973;DHT22;25333;50.762;4.470;2022-11-12T17:06:35;11.70;99.90
38973;DHT22;25333;50.762;4.470;2022-11-12T17:09:21;11.70;99.90
38973;DHT22;25333;50.762;4.470;2022-11-12T17:11:49;11.60;99.90
38973;DHT22;25333;50.762;4.470;2022-11-12T17:14:21;11.50;99.90
38973;DHT22;25333;50.762;4.470;2022-11-12T17:16:47;11.40;99.90
38973;DHT22;25333;50.762;4.470;2022-11-12T17:19:12;11.40;99.90
38973;DHT22;25333;50.762;4.470;2022-11-12T17:21:38;11.20;99.90
38973;DHT22;25333;50.762;4.470;2022-11-12T17:24:04;11.20;99.90
38973;DHT22;25333;50.762;4.470;2022-11-12T17:26:30;11.30;99.90
38973;DHT22;25333;50.762;4.470;2022-11-12T17:28:59;11.30;99.90
38973;DHT22;25333;50.762;4.470;2022-11-12T17:31:24;11.20;99.90
38973;DHT22;25333;50.762;4.470;2022-11-12T17:33:51;11.00;99.90
38973;DHT22;25333;50.762;4.470;2022-11-12T17:36:32;11.00;99.90
38973;DHT22;25333;50.762;4.470;2022-11-12T17:39:08;11.00;99.90
38973;DHT22;25333;50.762;4.470;2022-11-12T17:41:41;11.00;99.90
38973;DHT22;25333;50.762;4.470;2022-11-12T17:44:07;11.00;99.90
38973;DHT22;25333;50.762;4.470;2022-11-12T17:46:33;10.80;99.90
38973;DHT22;25333;50.762;4.470;2022-11-12T17:49:01;10.60;99.90
38973;DHT22;25333;50.762;4.470;2022-11-12T17:51:27;10.50;99.90
38973;DHT22;25333;50.762;4.470;2022-11-12T17:53:54;10.50;99.90
38973;DHT22;25333;50.762;4.470;2022-11-12T17:56:22;10.50;99.90
38973;DHT22;25333;50.762;4.470;2022-11-12T17:58:48;10.50;99.90
38973;DHT22;25333;50.762;4.470;2022-11-12T18:01:20;10.50;99.90
38973;DHT22;25333;50.762;4.470;2022-11-12T18:04:07;10.60;99.90
38973;DHT22;25333;50.762;4.470;2022-11-12T18:06:34;10.50;99.90
38973;DHT22;25333;50.762;4.470;2022-11-12T18:09:22;10.40;99.90
38973;DHT22;25333;50.762;4.470;2022-11-12T18:12:09;10.20;99.90
38973;DHT22;25333;50.762;4.470;2022-11-12T18:14:34;10.10;99.90
38973;DHT22;25333;50.762;4.470;2022-11-12T18:17:00;10.10;99.90
38973;DHT22;25333;50.762;4.470;2022-11-12T18:19:25;10.30;99.90
38973;DHT22;25333;50.762;4.470;2022-11-12T18:21:51;10.30;99.90
38973;DHT22;25333;50.762;4.470;2022-11-12T18:24:21;10.10;99.90
38973;DHT22;25333;50.762;4.470;2022-11-12T18:26:46;10.00;99.90
38973;DHT22;25333;50.762;4.470;2022-11-12T18:29:12;9.80;99.90
38973;DHT22;25333;50.762;4.470;2022-11-12T18:31:38;9.70;99.90
38973;DHT22;25333;50.762;4.470;2022-11-12T18:34:10;9.80;99.90
38973;DHT22;25333;50.762;4.470;2022-11-12T18:36:40;9.70;99.90
38973;DHT22;25333;50.762;4.470;2022-11-12T18:39:06;9.70;99.90
38973;DHT22;25333;50.762;4.470;2022-11-12T18:41:31;9.70;99.90
38973;DHT22;25333;50.762;4.470;2022-11-12T18:43:59;9.70;99.90
38973;DHT22;25333;50.762;4.470;2022-11-12T18:46:28;9.70;99.90
38973;DHT22;25333;50.762;4.470;2022-11-12T18:48:54;9.70;99.90
38973;DHT22;25333;50.762;4.470;2022-11-12T18:51:20;9.70;99.90
38973;DHT22;25333;50.762;4.470;2022-11-12T18:53:46;9.70;99.90